sensor_id;sensor_type;location;lat;lon;timestamp;pressure;altitude;pressure_sealevel;temperature;humidity
48846;BME280;34665;51.886;5.436;2023-04-26T00:01:11;101756.28;;;12.30;76.60
48846;BME280;34665;51.886;5.436;2023-04-26T00:03:39;101759.78;;;12.15;77.55
48846;BME280;34665;51.886;5.436;2023-04-26T00:06:04;101758.91;;;12.00;78.36
48846;BME280;34665;51.886;5.436;2023-04-26T00:08:32;101753.22;;;12.03;78.52
48846;BME280;34665;51.886;5.436;2023-04-26T00:10:58;101757.13;;;11.77;80.10
48846;BME280;34665;51.886;5.436;2023-04-26T00:13:23;101759.72;;;11.85;80.53
48846;BME280;34665;51.886;5.436;2023-04-26T00:15:48;101756.13;;;11.93;80.78
48846;BME280;34665;51.886;5.436;2023-04-26T00:18:14;101759.72;;;11.85;81.44
48846;BME280;34665;51.886;5.436;2023-04-26T00:20:39;101759.19;;;11.90;80.86
48846;BME280;34665;51.886;5.436;2023-04-26T00:23:05;101757.78;;;11.94;81.40
48846;BME280;34665;51.886;5.436;2023-04-26T00:25:33;101757.44;;;11.97;81.14
48846;BME280;34665;51.886;5.436;2023-04-26T00:27:58;101751.78;;;11.92;81.92
48846;BME280;34665;51.886;5.436;2023-04-26T00:30:24;101765.88;;;12.09;80.84
48846;BME280;34665;51.886;5.436;2023-04-26T00:32:49;101755.28;;;11.93;81.08
48846;BME280;34665;51.886;5.436;2023-04-26T00:35:14;101758.22;;;12.06;81.01
48846;BME280;34665;51.886;5.436;2023-04-26T00:37:40;101759.09;;;11.98;81.42
48846;BME280;34665;51.886;5.436;2023-04-26T00:40:05;101752.84;;;11.83;82.44
48846;BME280;34665;51.886;5.436;2023-04-26T00:42:31;101754.25;;;12.02;81.69
48846;BME280;34665;51.886;5.436;2023-04-26T00:44:56;101761.06;;;12.04;81.04
48846;BME280;34665;51.886;5.436;2023-04-26T00:47:23;101756.84;;;11.87;81.91
48846;BME280;34665;51.886;5.436;2023-04-26T00:49:49;101756.38;;;11.83;82.65
48846;BME280;34665;51.886;5.436;2023-04-26T00:52:14;101750.75;;;11.78;82.72
48846;BME280;34665;51.886;5.436;2023-04-26T00:54:41;101755.38;;;12.23;80.99
48846;BME280;34665;51.886;5.436;2023-04-26T00:57:06;101752.44;;;11.94;81.83
48846;BME280;34665;51.886;5.436;2023-04-26T00:59:34;101748.41;;;11.75;82.42
48846;BME280;34665;51.886;5.436;2023-04-26T01:02:01;101751.28;;;11.73;83.23
48846;BME280;34665;51.886;5.436;2023-04-26T01:04:27;101752.16;;;11.66;84.33
48846;BME280;34665;51.886;5.436;2023-04-26T01:06:54;101742.31;;;11.66;83.99
48846;BME280;34665;51.886;5.436;2023-04-26T01:09:20;101757.59;;;11.57;84.91
48846;BME280;34665;51.886;5.436;2023-04-26T01:11:45;101756.34;;;11.45;86.13
48846;BME280;34665;51.886;5.436;2023-04-26T01:14:11;101754.88;;;11.42;86.33
48846;BME280;34665;51.886;5.436;2023-04-26T01:16:38;101753.25;;;11.56;86.16
48846;BME280;34665;51.886;5.436;2023-04-26T01:19:08;101747.28;;;11.46;86.51
48846;BME280;34665;51.886;5.436;2023-04-26T01:21:37;101753.53;;;11.38;87.00
48846;BME280;34665;51.886;5.436;2023-04-26T01:24:03;101760.53;;;11.47;87.16
48846;BME280;34665;51.886;5.436;2023-04-26T01:26:29;101762.19;;;11.48;87.47
48846;BME280;34665;51.886;5.436;2023-04-26T01:28:55;101769.38;;;11.48;86.82
48846;BME280;34665;51.886;5.436;2023-04-26T01:31:20;101761.41;;;11.40;87.54
48846;BME280;34665;51.886;5.436;2023-04-26T01:33:46;101765.53;;;11.51;87.00
48846;BME280;34665;51.886;5.436;2023-04-26T01:36:11;101765.16;;;11.54;86.59
48846;BME280;34665;51.886;5.436;2023-04-26T01:38:36;101764.88;;;11.48;86.55
48846;BME280;34665;51.886;5.436;2023-04-26T01:41:02;101763.72;;;11.43;87.57
48846;BME280;34665;51.886;5.436;2023-04-26T01:43:30;101766.34;;;11.51;86.60
48846;BME280;34665;51.886;5.436;2023-04-26T01:45:56;101766.28;;;11.59;86.26
48846;BME280;34665;51.886;5.436;2023-04-26T01:48:28;101759.81;;;11.54;86.44
48846;BME280;34665;51.886;5.436;2023-04-26T01:50:53;101762.47;;;11.54;86.60
48846;BME280;34665;51.886;5.436;2023-04-26T01:53:18;101754.09;;;11.33;87.88
48846;BME280;34665;51.886;5.436;2023-04-26T01:55:44;101745.44;;;11.70;87.11
48846;BME280;34665;51.886;5.436;2023-04-26T01:58:09;101744.44;;;11.01;89.93
48846;BME280;34665;51.886;5.436;2023-04-26T02:00:36;101743.97;;;11.44;88.41
48846;BME280;34665;51.886;5.436;2023-04-26T02:03:02;101750.78;;;11.70;86.08
48846;BME280;34665;51.886;5.436;2023-04-26T02:05:28;101753.47;;;11.70;85.93
48846;BME280;34665;51.886;5.436;2023-04-26T02:07:54;101756.22;;;11.61;86.21
48846;BME280;34665;51.886;5.436;2023-04-26T02:10:20;101758.72;;;11.40;87.18
48846;BME280;34665;51.886;5.436;2023-04-26T02:12:45;101764.16;;;11.31;88.47
48846;BME280;34665;51.886;5.436;2023-04-26T02:15:11;101757.59;;;11.11;89.54
48846;BME280;34665;51.886;5.436;2023-04-26T02:17:37;101763.47;;;11.29;88.24
48846;BME280;34665;51.886;5.436;2023-04-26T02:20:04;101758.06;;;11.38;87.45
48846;BME280;34665;51.886;5.436;2023-04-26T02:22:29;101755.94;;;11.56;87.69
48846;BME280;34665;51.886;5.436;2023-04-26T02:24:55;101758.84;;;11.23;89.07
48846;BME280;34665;51.886;5.436;2023-04-26T02:27:25;101752.22;;;11.11;90.14
48846;BME280;34665;51.886;5.436;2023-04-26T02:29:52;101756.34;;;11.22;89.70
48846;BME280;34665;51.886;5.436;2023-04-26T02:32:18;101752.22;;;11.11;90.63
48846;BME280;34665;51.886;5.436;2023-04-26T02:34:44;101757.75;;;11.09;89.93
48846;BME280;34665;51.886;5.436;2023-04-26T02:37:09;101756.59;;;11.03;90.34
48846;BME280;34665;51.886;5.436;2023-04-26T02:39:35;101753.81;;;10.97;91.28
48846;BME280;34665;51.886;5.436;2023-04-26T02:42:00;101757.94;;;10.76;93.21
48846;BME280;34665;51.886;5.436;2023-04-26T02:44:29;101753.63;;;10.98;91.85
48846;BME280;34665;51.886;5.436;2023-04-26T02:46:55;101748.63;;;10.95;91.88
48846;BME280;34665;51.886;5.436;2023-04-26T02:49:21;101756.00;;;10.93;91.91
48846;BME280;34665;51.886;5.436;2023-04-26T02:51:46;101753.63;;;10.98;91.38
48846;BME280;34665;51.886;5.436;2023-04-26T02:54:11;101756.25;;;11.07;91.15
48846;BME280;34665;51.886;5.436;2023-04-26T02:56:37;101750.38;;;11.11;91.38
48846;BME280;34665;51.886;5.436;2023-04-26T02:59:04;101745.53;;;11.07;91.40
48846;BME280;34665;51.886;5.436;2023-04-26T03:01:31;101743.75;;;10.99;91.53
48846;BME280;34665;51.886;5.436;2023-04-26T03:03:56;101736.13;;;10.87;92.43
48846;BME280;34665;51.886;5.436;2023-04-26T03:06:22;101737.22;;;11.01;91.15
48846;BME280;34665;51.886;5.436;2023-04-26T03:08:47;101742.09;;;10.98;90.92
48846;BME280;34665;51.886;5.436;2023-04-26T03:11:13;101735.84;;;11.05;90.90
48846;BME280;34665;51.886;5.436;2023-04-26T03:13:38;101733.06;;;10.99;90.91
48846;BME280;34665;51.886;5.436;2023-04-26T03:16:04;101742.31;;;10.88;91.14
48846;BME280;34665;51.886;5.436;2023-04-26T03:18:30;101745.78;;;10.97;91.12
48846;BME280;34665;51.886;5.436;2023-04-26T03:20:56;101742.69;;;10.85;91.68
48846;BME280;34665;51.886;5.436;2023-04-26T03:23:21;101739.31;;;10.83;93.22
48846;BME280;34665;51.886;5.436;2023-04-26T03:25:50;101746.44;;;10.59;95.48
48846;BME280;34665;51.886;5.436;2023-04-26T03:28:16;101739.59;;;10.56;95.70
48846;BME280;34665;51.886;5.436;2023-04-26T03:30:42;101735.31;;;10.79;94.08
48846;BME280;34665;51.886;5.436;2023-04-26T03:33:07;101733.13;;;10.82;93.23
48846;BME280;34665;51.886;5.436;2023-04-26T03:35:32;101728.00;;;10.72;93.65
48846;BME280;34665;51.886;5.436;2023-04-26T03:37:59;101738.22;;;10.69;93.78
48846;BME280;34665;51.886;5.436;2023-04-26T03:40:25;101732.34;;;10.73;93.47
48846;BME280;34665;51.886;5.436;2023-04-26T03:42:51;101731.97;;;10.85;92.57
48846;BME280;34665;51.886;5.436;2023-04-26T03:45:16;101734.66;;;10.85;92.61
48846;BME280;34665;51.886;5.436;2023-04-26T03:47:41;101726.25;;;10.88;92.01
48846;BME280;34665;51.886;5.436;2023-04-26T03:50:07;101720.69;;;10.66;92.99
48846;BME280;34665;51.886;5.436;2023-04-26T03:52:33;101720.56;;;10.91;92.44
48846;BME280;34665;51.886;5.436;2023-04-26T03:54:58;101724.25;;;10.90;91.89
48846;BME280;34665;51.886;5.436;2023-04-26T03:57:24;101727.59;;;10.84;92.27
48846;BME280;34665;51.886;5.436;2023-04-26T03:59:50;101733.31;;;10.81;92.57
48846;BME280;34665;51.886;5.436;2023-04-26T04:02:15;101732.63;;;10.87;92.40
48846;BME280;34665;51.886;5.436;2023-04-26T04:04:41;101732.00;;;10.76;93.33
48846;BME280;34665;51.886;5.436;2023-04-26T04:07:07;101731.13;;;10.84;92.51
48846;BME280;34665;51.886;5.436;2023-04-26T04:09:33;101735.56;;;10.60;94.06
48846;BME280;34665;51.886;5.436;2023-04-26T04:11:58;101727.38;;;10.94;92.29
48846;BME280;34665;51.886;5.436;2023-04-26T04:14:25;101721.91;;;10.87;92.20
48846;BME280;34665;51.886;5.436;2023-04-26T04:16:50;101712.91;;;10.80;92.07
48846;BME280;34665;51.886;5.436;2023-04-26T04:19:16;101732.25;;;10.58;94.12
48846;BME280;34665;51.886;5.436;2023-04-26T04:21:42;101727.19;;;10.64;94.41
48846;BME280;34665;51.886;5.436;2023-04-26T04:24:10;101728.88;;;10.65;94.01
48846;BME280;34665;51.886;5.436;2023-04-26T04:26:35;101726.53;;;10.61;94.16
48846;BME280;34665;51.886;5.436;2023-04-26T04:29:02;101726.94;;;10.82;93.43
48846;BME280;34665;51.886;5.436;2023-04-26T04:31:34;101731.56;;;10.96;93.09
48846;BME280;34665;51.886;5.436;2023-04-26T04:34:00;101735.19;;;11.03;92.50
48846;BME280;34665;51.886;5.436;2023-04-26T04:36:25;101730.53;;;10.97;93.29
48846;BME280;34665;51.886;5.436;2023-04-26T04:38:51;101735.75;;;11.22;91.47
48846;BME280;34665;51.886;5.436;2023-04-26T04:41:18;101737.06;;;11.26;91.71
48846;BME280;34665;51.886;5.436;2023-04-26T04:43:48;101735.91;;;10.97;93.37
48846;BME280;34665;51.886;5.436;2023-04-26T04:46:13;101732.94;;;10.92;94.04
48846;BME280;34665;51.886;5.436;2023-04-26T04:48:39;101729.03;;;10.95;94.48
48846;BME280;34665;51.886;5.436;2023-04-26T04:51:05;101728.78;;;10.81;95.81
48846;BME280;34665;51.886;5.436;2023-04-26T04:53:31;101736.13;;;10.87;96.68
48846;BME280;34665;51.886;5.436;2023-04-26T04:55:57;101736.97;;;10.88;96.53
48846;BME280;34665;51.886;5.436;2023-04-26T04:58:23;101739.31;;;10.83;96.92
48846;BME280;34665;51.886;5.436;2023-04-26T05:00:49;101741.66;;;10.86;97.97
48846;BME280;34665;51.886;5.436;2023-04-26T05:03:20;101754.94;;;11.02;97.66
48846;BME280;34665;51.886;5.436;2023-04-26T05:05:46;101755.09;;;11.32;96.28
48846;BME280;34665;51.886;5.436;2023-04-26T05:08:13;101744.75;;;11.53;95.36
48846;BME280;34665;51.886;5.436;2023-04-26T05:10:38;101757.84;;;11.47;94.82
48846;BME280;34665;51.886;5.436;2023-04-26T05:13:04;101756.63;;;11.50;95.31
48846;BME280;34665;51.886;5.436;2023-04-26T05:15:30;101757.22;;;11.37;97.25
48846;BME280;34665;51.886;5.436;2023-04-26T05:17:55;101757.59;;;11.57;96.06
48846;BME280;34665;51.886;5.436;2023-04-26T05:20:23;101761.50;;;11.70;95.40
48846;BME280;34665;51.886;5.436;2023-04-26T05:22:49;101767.34;;;11.73;95.71
48846;BME280;34665;51.886;5.436;2023-04-26T05:25:15;101766.00;;;11.93;94.60
48846;BME280;34665;51.886;5.436;2023-04-26T05:27:43;101768.22;;;12.27;93.88
48846;BME280;34665;51.886;5.436;2023-04-26T05:30:30;101761.16;;;11.73;96.77
48846;BME280;34665;51.886;5.436;2023-04-26T05:33:14;101755.91;;;12.03;97.21
48846;BME280;34665;51.886;5.436;2023-04-26T05:35:48;101769.41;;;11.86;98.03
48846;BME280;34665;51.886;5.436;2023-04-26T05:38:14;101763.84;;;12.11;96.60
48846;BME280;34665;51.886;5.436;2023-04-26T05:40:40;101765.09;;;12.39;94.95
48846;BME280;34665;51.886;5.436;2023-04-26T05:43:06;101774.41;;;12.58;93.97
48846;BME280;34665;51.886;5.436;2023-04-26T05:45:33;101766.75;;;12.40;93.76
48846;BME280;34665;51.886;5.436;2023-04-26T05:47:59;101773.31;;;12.37;94.49
48846;BME280;34665;51.886;5.436;2023-04-26T05:50:25;101778.66;;;12.67;93.16
48846;BME280;34665;51.886;5.436;2023-04-26T05:52:50;101773.59;;;12.72;92.64
48846;BME280;34665;51.886;5.436;2023-04-26T05:55:15;101773.84;;;12.77;91.74
48846;BME280;34665;51.886;5.436;2023-04-26T05:57:41;101774.41;;;12.13;93.10
48846;BME280;34665;51.886;5.436;2023-04-26T06:00:07;101773.22;;;12.45;92.61
48846;BME280;34665;51.886;5.436;2023-04-26T06:02:39;101778.97;;;12.57;91.59
48846;BME280;34665;51.886;5.436;2023-04-26T06:05:05;101768.13;;;12.51;91.91
48846;BME280;34665;51.886;5.436;2023-04-26T06:07:31;101773.50;;;12.51;91.74
48846;BME280;34665;51.886;5.436;2023-04-26T06:09:56;101779.22;;;12.77;89.70
48846;BME280;34665;51.886;5.436;2023-04-26T06:12:22;101779.97;;;12.71;89.34
48846;BME280;34665;51.886;5.436;2023-04-26T06:14:49;101774.34;;;13.03;88.26
48846;BME280;34665;51.886;5.436;2023-04-26T06:17:19;101771.75;;;13.10;87.51
48846;BME280;34665;51.886;5.436;2023-04-26T06:19:45;101779.72;;;13.40;86.30
48846;BME280;34665;51.886;5.436;2023-04-26T06:22:10;101780.47;;;13.33;86.14
48846;BME280;34665;51.886;5.436;2023-04-26T06:24:37;101784.00;;;13.34;86.07
48846;BME280;34665;51.886;5.436;2023-04-26T06:27:02;101790.38;;;13.48;85.79
48846;BME280;34665;51.886;5.436;2023-04-26T06:29:31;101797.72;;;13.83;84.64
48846;BME280;34665;51.886;5.436;2023-04-26T06:31:57;101789.81;;;14.03;83.15
48846;BME280;34665;51.886;5.436;2023-04-26T06:34:24;101794.09;;;14.26;81.40
48846;BME280;34665;51.886;5.436;2023-04-26T06:36:49;101796.84;;;14.32;81.16
48846;BME280;34665;51.886;5.436;2023-04-26T06:39:15;101796.13;;;13.88;82.29
48846;BME280;34665;51.886;5.436;2023-04-26T06:41:43;101807.13;;;13.94;83.27
48846;BME280;34665;51.886;5.436;2023-04-26T06:44:10;101803.53;;;14.15;81.52
48846;BME280;34665;51.886;5.436;2023-04-26T06:46:40;101809.13;;;14.13;80.13
48846;BME280;34665;51.886;5.436;2023-04-26T06:49:06;101811.78;;;14.35;78.65
48846;BME280;34665;51.886;5.436;2023-04-26T06:51:32;101814.88;;;14.32;78.25
48846;BME280;34665;51.886;5.436;2023-04-26T06:53:57;101809.47;;;14.67;77.73
48846;BME280;34665;51.886;5.436;2023-04-26T06:56:24;101812.00;;;15.17;76.08
48846;BME280;34665;51.886;5.436;2023-04-26T06:58:57;101810.50;;;15.08;75.59
48846;BME280;34665;51.886;5.436;2023-04-26T07:01:22;101814.94;;;14.74;76.92
48846;BME280;34665;51.886;5.436;2023-04-26T07:03:48;101808.38;;;14.90;75.80
48846;BME280;34665;51.886;5.436;2023-04-26T07:06:13;101811.84;;;15.39;74.70
48846;BME280;34665;51.886;5.436;2023-04-26T07:08:39;101804.31;;;15.08;72.97
48846;BME280;34665;51.886;5.436;2023-04-26T07:11:11;101805.38;;;14.71;75.23
48846;BME280;34665;51.886;5.436;2023-04-26T07:13:36;101808.31;;;15.39;74.21
48846;BME280;34665;51.886;5.436;2023-04-26T07:16:02;101816.63;;;15.51;73.90
48846;BME280;34665;51.886;5.436;2023-04-26T07:18:27;101810.50;;;14.31;76.19
48846;BME280;34665;51.886;5.436;2023-04-26T07:20:53;101810.75;;;14.71;75.85
48846;BME280;34665;51.886;5.436;2023-04-26T07:23:18;101803.75;;;14.77;76.08
48846;BME280;34665;51.886;5.436;2023-04-26T07:25:43;101802.47;;;15.22;74.38
48846;BME280;34665;51.886;5.436;2023-04-26T07:28:09;101811.94;;;16.00;72.50
48846;BME280;34665;51.886;5.436;2023-04-26T07:30:34;101807.69;;;15.37;70.31
48846;BME280;34665;51.886;5.436;2023-04-26T07:33:00;101805.78;;;15.17;71.89
48846;BME280;34665;51.886;5.436;2023-04-26T07:35:26;101808.59;;;15.84;69.78
48846;BME280;34665;51.886;5.436;2023-04-26T07:37:51;101807.31;;;15.67;70.42
48846;BME280;34665;51.886;5.436;2023-04-26T07:40:16;101806.34;;;15.95;69.23
48846;BME280;34665;51.886;5.436;2023-04-26T07:42:42;101809.84;;;15.82;68.45
48846;BME280;34665;51.886;5.436;2023-04-26T07:45:08;101813.00;;;15.10;69.38
48846;BME280;34665;51.886;5.436;2023-04-26T07:47:33;101816.84;;;15.62;67.93
48846;BME280;34665;51.886;5.436;2023-04-26T07:49:58;101810.84;;;15.60;68.73
48846;BME280;34665;51.886;5.436;2023-04-26T07:52:24;101817.16;;;15.12;69.21
48846;BME280;34665;51.886;5.436;2023-04-26T07:54:49;101811.03;;;14.83;70.27
48846;BME280;34665;51.886;5.436;2023-04-26T07:57:14;101813.81;;;15.10;70.21
48846;BME280;34665;51.886;5.436;2023-04-26T07:59:40;101822.00;;;15.30;68.77
48846;BME280;34665;51.886;5.436;2023-04-26T08:02:06;101823.84;;;15.23;69.40
48846;BME280;34665;51.886;5.436;2023-04-26T08:04:32;101830.34;;;15.62;68.95
48846;BME280;34665;51.886;5.436;2023-04-26T08:06:58;101826.75;;;15.28;68.44
48846;BME280;34665;51.886;5.436;2023-04-26T08:09:24;101823.28;;;15.48;67.15
48846;BME280;34665;51.886;5.436;2023-04-26T08:11:49;101834.31;;;16.41;65.94
48846;BME280;34665;51.886;5.436;2023-04-26T08:14:15;101828.47;;;16.57;64.62
48846;BME280;34665;51.886;5.436;2023-04-26T08:16:40;101833.63;;;16.66;64.21
48846;BME280;34665;51.886;5.436;2023-04-26T08:19:05;101826.22;;;17.13;63.09
48846;BME280;34665;51.886;5.436;2023-04-26T08:21:31;101827.16;;;16.87;62.53
48846;BME280;34665;51.886;5.436;2023-04-26T08:23:56;101829.78;;;17.46;61.18
48846;BME280;34665;51.886;5.436;2023-04-26T08:26:22;101838.59;;;17.34;59.60
48846;BME280;34665;51.886;5.436;2023-04-26T08:28:47;101833.63;;;16.72;59.22
48846;BME280;34665;51.886;5.436;2023-04-26T08:31:13;101827.16;;;16.80;58.26
48846;BME280;34665;51.886;5.436;2023-04-26T08:33:38;101830.84;;;17.77;57.23
48846;BME280;34665;51.886;5.436;2023-04-26T08:36:04;101843.09;;;18.12;55.72
48846;BME280;34665;51.886;5.436;2023-04-26T08:38:29;101823.38;;;17.98;56.68
48846;BME280;34665;51.886;5.436;2023-04-26T08:40:57;101829.53;;;17.86;56.82
48846;BME280;34665;51.886;5.436;2023-04-26T08:43:23;101839.63;;;17.98;55.90
48846;BME280;34665;51.886;5.436;2023-04-26T08:45:48;101834.63;;;18.27;56.02
48846;BME280;34665;51.886;5.436;2023-04-26T08:48:14;101828.56;;;18.69;54.69
48846;BME280;34665;51.886;5.436;2023-04-26T08:50:42;101832.94;;;19.07;53.59
48846;BME280;34665;51.886;5.436;2023-04-26T08:53:11;101833.34;;;18.29;53.29
48846;BME280;34665;51.886;5.436;2023-04-26T08:55:38;101842.69;;;18.08;52.78
48846;BME280;34665;51.886;5.436;2023-04-26T08:58:03;101835.84;;;18.31;52.15
48846;BME280;34665;51.886;5.436;2023-04-26T09:00:29;101830.72;;;18.41;51.77
48846;BME280;34665;51.886;5.436;2023-04-26T09:02:55;101827.66;;;18.38;51.05
48846;BME280;34665;51.886;5.436;2023-04-26T09:05:20;101831.56;;;17.91;51.39
48846;BME280;34665;51.886;5.436;2023-04-26T09:07:49;101831.13;;;18.19;50.51
48846;BME280;34665;51.886;5.436;2023-04-26T09:10:19;101828.28;;;18.58;49.82
48846;BME280;34665;51.886;5.436;2023-04-26T09:12:50;101816.44;;;18.53;50.48
48846;BME280;34665;51.886;5.436;2023-04-26T09:15:16;101816.19;;;18.91;50.86
48846;BME280;34665;51.886;5.436;2023-04-26T09:17:41;101812.28;;;18.87;49.36
48846;BME280;34665;51.886;5.436;2023-04-26T09:20:17;101818.50;;;18.57;50.16
48846;BME280;34665;51.886;5.436;2023-04-26T09:22:43;101822.44;;;17.85;49.67
48846;BME280;34665;51.886;5.436;2023-04-26T09:25:11;101811.84;;;17.58;50.71
48846;BME280;34665;51.886;5.436;2023-04-26T09:27:39;101812.84;;;17.89;49.52
48846;BME280;34665;51.886;5.436;2023-04-26T09:30:14;101809.00;;;18.67;48.62
48846;BME280;34665;51.886;5.436;2023-04-26T09:32:42;101820.00;;;18.09;49.21
48846;BME280;34665;51.886;5.436;2023-04-26T09:35:17;101818.84;;;18.61;48.52
48846;BME280;34665;51.886;5.436;2023-04-26T09:37:50;101821.53;;;18.42;48.42
48846;BME280;34665;51.886;5.436;2023-04-26T09:40:19;101833.59;;;20.42;45.89
48846;BME280;34665;51.886;5.436;2023-04-26T09:42:44;101833.44;;;22.28;43.16
48846;BME280;34665;51.886;5.436;2023-04-26T09:45:10;101835.69;;;23.42;40.31
48846;BME280;34665;51.886;5.436;2023-04-26T09:47:36;101841.06;;;21.74;41.13
48846;BME280;34665;51.886;5.436;2023-04-26T09:50:01;101838.03;;;21.42;40.47
48846;BME280;34665;51.886;5.436;2023-04-26T09:52:28;101838.75;;;20.43;40.38
48846;BME280;34665;51.886;5.436;2023-04-26T09:54:54;101837.22;;;19.15;40.43
48846;BME280;34665;51.886;5.436;2023-04-26T09:57:20;101828.50;;;18.75;41.42
48846;BME280;34665;51.886;5.436;2023-04-26T09:59:49;101823.34;;;19.23;41.54
48846;BME280;34665;51.886;5.436;2023-04-26T10:02:19;101828.78;;;18.48;42.84
48846;BME280;34665;51.886;5.436;2023-04-26T10:04:55;101826.19;;;18.35;44.16
48846;BME280;34665;51.886;5.436;2023-04-26T10:07:21;101815.75;;;18.95;43.72
48846;BME280;34665;51.886;5.436;2023-04-26T10:09:47;101820.13;;;18.77;43.77
48846;BME280;34665;51.886;5.436;2023-04-26T10:12:14;101818.03;;;18.60;44.28
48846;BME280;34665;51.886;5.436;2023-04-26T10:14:40;101816.59;;;18.95;45.34
48846;BME280;34665;51.886;5.436;2023-04-26T10:17:06;101816.00;;;18.93;45.96
48846;BME280;34665;51.886;5.436;2023-04-26T10:19:34;101826.28;;;19.03;46.28
48846;BME280;34665;51.886;5.436;2023-04-26T10:22:05;101826.81;;;18.37;46.75
48846;BME280;34665;51.886;5.436;2023-04-26T10:24:32;101817.50;;;18.70;46.57
48846;BME280;34665;51.886;5.436;2023-04-26T10:26:58;101823.00;;;18.82;46.08
48846;BME280;34665;51.886;5.436;2023-04-26T10:30:04;101821.25;;;18.51;46.64
48846;BME280;34665;51.886;5.436;2023-04-26T10:32:10;101816.00;;;18.93;45.94
48846;BME280;34665;51.886;5.436;2023-04-26T10:34:40;101810.78;;;18.91;45.61
48846;BME280;34665;51.886;5.436;2023-04-26T10:39:35;101812.22;;;18.94;46.89
48846;BME280;34665;51.886;5.436;2023-04-26T10:44:58;101820.59;;;19.54;44.97
48846;BME280;34665;51.886;5.436;2023-04-26T10:47:25;101820.69;;;19.47;44.89
48846;BME280;34665;51.886;5.436;2023-04-26T10:49:51;101815.47;;;19.33;44.89
48846;BME280;34665;51.886;5.436;2023-04-26T10:52:17;101813.72;;;18.90;46.38
48846;BME280;34665;51.886;5.436;2023-04-26T10:54:48;101817.13;;;19.34;45.83
48846;BME280;34665;51.886;5.436;2023-04-26T10:57:14;101821.03;;;19.08;45.05
48846;BME280;34665;51.886;5.436;2023-04-26T11:00:07;101821.34;;;19.30;45.54
48846;BME280;34665;51.886;5.436;2023-04-26T11:05:10;101813.91;;;19.80;44.62
48846;BME280;34665;51.886;5.436;2023-04-26T11:07:53;101815.72;;;19.86;43.79
48846;BME280;34665;51.886;5.436;2023-04-26T11:10:27;101814.66;;;20.59;43.45
48846;BME280;34665;51.886;5.436;2023-04-26T11:13:00;101815.38;;;20.42;43.37
48846;BME280;34665;51.886;5.436;2023-04-26T11:15:29;101817.59;;;20.57;43.41
48846;BME280;34665;51.886;5.436;2023-04-26T11:17:54;101813.94;;;20.52;43.32
48846;BME280;34665;51.886;5.436;2023-04-26T11:20:20;101808.91;;;20.19;43.38
48846;BME280;34665;51.886;5.436;2023-04-26T11:22:45;101801.28;;;19.74;43.55
48846;BME280;34665;51.886;5.436;2023-04-26T11:25:11;101797.41;;;19.27;44.40
48846;BME280;34665;51.886;5.436;2023-04-26T11:27:38;101793.09;;;19.08;44.69
48846;BME280;34665;51.886;5.436;2023-04-26T11:30:03;101794.16;;;19.91;44.69
48846;BME280;34665;51.886;5.436;2023-04-26T11:32:30;101797.13;;;20.78;44.14
48846;BME280;34665;51.886;5.436;2023-04-26T11:34:58;101797.75;;;21.10;42.98
48846;BME280;34665;51.886;5.436;2023-04-26T11:37:24;101799.66;;;20.97;43.61
48846;BME280;34665;51.886;5.436;2023-04-26T11:39:50;101792.09;;;19.87;42.64
48846;BME280;34665;51.886;5.436;2023-04-26T11:42:15;101798.84;;;20.56;42.86
48846;BME280;34665;51.886;5.436;2023-04-26T11:44:41;101796.28;;;21.19;42.07
48846;BME280;34665;51.886;5.436;2023-04-26T11:47:06;101796.91;;;20.80;41.20
48846;BME280;34665;51.886;5.436;2023-04-26T11:49:34;101803.56;;;21.47;41.54
48846;BME280;34665;51.886;5.436;2023-04-26T11:52:00;101805.72;;;21.62;41.21
48846;BME280;34665;51.886;5.436;2023-04-26T11:54:30;101797.56;;;20.87;41.36
48846;BME280;34665;51.886;5.436;2023-04-26T11:56:57;101798.84;;;21.26;41.20
48846;BME280;34665;51.886;5.436;2023-04-26T11:59:23;101798.63;;;20.86;40.97
48846;BME280;34665;51.886;5.436;2023-04-26T12:01:49;101812.66;;;21.53;39.97
48846;BME280;34665;51.886;5.436;2023-04-26T12:04:15;101811.75;;;22.16;38.88
48846;BME280;34665;51.886;5.436;2023-04-26T12:06:41;101800.41;;;21.22;39.02
48846;BME280;34665;51.886;5.436;2023-04-26T12:09:06;101807.66;;;21.33;39.50
48846;BME280;34665;51.886;5.436;2023-04-26T12:11:38;101806.47;;;21.12;39.42
48846;BME280;34665;51.886;5.436;2023-04-26T12:14:04;101810.88;;;22.94;38.25
48846;BME280;34665;51.886;5.436;2023-04-26T12:16:30;101799.13;;;23.43;39.44
48846;BME280;34665;51.886;5.436;2023-04-26T12:18:56;101801.72;;;23.60;39.11
48846;BME280;34665;51.886;5.436;2023-04-26T12:21:21;101803.69;;;23.32;40.95
48846;BME280;34665;51.886;5.436;2023-04-26T12:23:47;101805.78;;;22.53;38.54
48846;BME280;34665;51.886;5.436;2023-04-26T12:26:13;101803.22;;;22.46;39.61
48846;BME280;34665;51.886;5.436;2023-04-26T12:28:39;101801.75;;;22.83;40.18
48846;BME280;34665;51.886;5.436;2023-04-26T12:31:06;101809.44;;;22.64;38.92
48846;BME280;34665;51.886;5.436;2023-04-26T12:33:31;101810.22;;;23.31;37.96
48846;BME280;34665;51.886;5.436;2023-04-26T12:36:04;101808.53;;;23.58;38.45
48846;BME280;34665;51.886;5.436;2023-04-26T12:38:30;101812.19;;;23.14;37.88
48846;BME280;34665;51.886;5.436;2023-04-26T12:40:56;101811.97;;;24.18;37.70
48846;BME280;34665;51.886;5.436;2023-04-26T12:43:21;101813.53;;;24.52;36.55
48846;BME280;34665;51.886;5.436;2023-04-26T12:45:48;101811.28;;;25.02;36.45
48846;BME280;34665;51.886;5.436;2023-04-26T12:48:14;101809.38;;;25.03;34.84
48846;BME280;34665;51.886;5.436;2023-04-26T12:50:40;101807.78;;;25.69;34.01
48846;BME280;34665;51.886;5.436;2023-04-26T12:53:05;101811.56;;;26.10;33.76
48846;BME280;34665;51.886;5.436;2023-04-26T12:55:31;101817.13;;;26.81;34.86